sensor_id;sensor_type;location;lat;lon;timestamp;pressure;altitude;pressure_sealevel;temperature;humidity
163;BME280;3946;48.958;8.284;2023-05-08T00:00:25;100766.91;;;15.44;100.00
163;BME280;3946;48.958;8.284;2023-05-08T00:03:10;100777.13;;;15.47;100.00
163;BME280;3946;48.958;8.284;2023-05-08T00:05:55;100766.22;;;15.42;100.00
163;BME280;3946;48.958;8.284;2023-05-08T00:08:40;100776.41;;;15.45;100.00
163;BME280;3946;48.958;8.284;2023-05-08T00:11:25;100774.88;;;15.43;100.00
163;BME280;3946;48.958;8.284;2023-05-08T00:14:12;100778.06;;;15.35;100.00
163;BME280;3946;48.958;8.284;2023-05-08T00:16:57;100774.97;;;15.30;100.00
163;BME280;3946;48.958;8.284;2023-05-08T00:19:42;100775.00;;;15.41;100.00
163;BME280;3946;48.958;8.284;2023-05-08T00:22:27;100777.00;;;15.49;100.00
163;BME280;3946;48.958;8.284;2023-05-08T00:25:12;100781.53;;;15.47;100.00
163;BME280;3946;48.958;8.284;2023-05-08T00:27:57;100781.19;;;15.62;100.00
163;BME280;3946;48.958;8.284;2023-05-08T00:30:43;100776.53;;;15.55;100.00
163;BME280;3946;48.958;8.284;2023-05-08T00:33:29;100774.63;;;15.46;100.00
163;BME280;3946;48.958;8.284;2023-05-08T00:36:14;100775.13;;;15.39;100.00
163;BME280;3946;48.958;8.284;2023-05-08T00:38:59;100768.22;;;15.50;100.00
163;BME280;3946;48.958;8.284;2023-05-08T00:41:44;100769.91;;;15.39;100.00
163;BME280;3946;48.958;8.284;2023-05-08T00:44:29;100765.72;;;15.48;100.00
163;BME280;3946;48.958;8.284;2023-05-08T00:47:16;100768.25;;;15.38;100.00
163;BME280;3946;48.958;8.284;2023-05-08T00:50:01;100777.13;;;15.36;100.00
163;BME280;3946;48.958;8.284;2023-05-08T00:52:50;100769.53;;;15.44;100.00
163;BME280;3946;48.958;8.284;2023-05-08T00:55:35;100769.41;;;15.46;100.00
163;BME280;3946;48.958;8.284;2023-05-08T00:58:22;100780.34;;;15.62;100.00
163;BME280;3946;48.958;8.284;2023-05-08T01:01:08;100775.22;;;15.49;100.00
163;BME280;3946;48.958;8.284;2023-05-08T01:03:56;100780.34;;;15.39;100.00
163;BME280;3946;48.958;8.284;2023-05-08T01:06:41;100776.53;;;15.55;100.00
163;BME280;3946;48.958;8.284;2023-05-08T01:09:26;100777.19;;;15.58;100.00
163;BME280;3946;48.958;8.284;2023-05-08T01:12:14;100774.31;;;15.61;100.00
163;BME280;3946;48.958;8.284;2023-05-08T01:15:04;100768.13;;;15.62;100.00
163;BME280;3946;48.958;8.284;2023-05-08T01:17:53;100770.84;;;15.50;100.00
163;BME280;3946;48.958;8.284;2023-05-08T01:20:44;100769.88;;;15.51;100.00
163;BME280;3946;48.958;8.284;2023-05-08T01:26:46;100767.50;;;15.48;100.00
163;BME280;3946;48.958;8.284;2023-05-08T01:29:42;100772.50;;;15.39;100.00
163;BME280;3946;48.958;8.284;2023-05-08T01:32:37;100777.63;;;15.41;100.00
163;BME280;3946;48.958;8.284;2023-05-08T01:35:25;100773.09;;;15.54;100.00
163;BME280;3946;48.958;8.284;2023-05-08T01:38:13;100777.13;;;15.36;100.00
163;BME280;3946;48.958;8.284;2023-05-08T01:41:02;100776.53;;;15.55;100.00
163;BME280;3946;48.958;8.284;2023-05-08T01:43:49;100776.53;;;15.32;100.00
163;BME280;3946;48.958;8.284;2023-05-08T01:46:36;100781.19;;;15.40;100.00
163;BME280;3946;48.958;8.284;2023-05-08T01:49:22;100774.16;;;15.29;100.00
163;BME280;3946;48.958;8.284;2023-05-08T01:52:09;100774.88;;;15.43;100.00
163;BME280;3946;48.958;8.284;2023-05-08T01:54:58;100772.97;;;15.33;100.00
163;BME280;3946;48.958;8.284;2023-05-08T01:57:46;100779.59;;;15.26;100.00
163;BME280;3946;48.958;8.284;2023-05-08T02:00:31;100783.66;;;15.30;100.00
163;BME280;3946;48.958;8.284;2023-05-08T02:03:16;100786.63;;;15.26;100.00
163;BME280;3946;48.958;8.284;2023-05-08T02:06:05;100790.69;;;15.41;100.00
163;BME280;3946;48.958;8.284;2023-05-08T02:08:51;100798.13;;;15.46;100.00
163;BME280;3946;48.958;8.284;2023-05-08T02:11:38;100784.34;;;15.44;100.00
163;BME280;3946;48.958;8.284;2023-05-08T02:14:23;100795.19;;;15.39;100.00
163;BME280;3946;48.958;8.284;2023-05-08T02:17:08;100791.13;;;15.35;100.00
163;BME280;3946;48.958;8.284;2023-05-08T02:19:55;100791.50;;;15.42;100.00
163;BME280;3946;48.958;8.284;2023-05-08T02:22:41;100792.03;;;15.58;100.00
163;BME280;3946;48.958;8.284;2023-05-08T02:25:27;100798.13;;;15.46;100.00
163;BME280;3946;48.958;8.284;2023-05-08T02:28:14;100793.84;;;15.45;100.00
163;BME280;3946;48.958;8.284;2023-05-08T02:30:59;100792.56;;;15.39;100.00
163;BME280;3946;48.958;8.284;2023-05-08T02:33:45;100799.69;;;15.37;100.00
163;BME280;3946;48.958;8.284;2023-05-08T02:36:32;100803.34;;;15.46;100.00
163;BME280;3946;48.958;8.284;2023-05-08T02:39:19;100804.69;;;15.40;100.00
163;BME280;3946;48.958;8.284;2023-05-08T02:42:05;100807.19;;;15.42;100.00
163;BME280;3946;48.958;8.284;2023-05-08T02:44:50;100802.91;;;15.40;100.00
163;BME280;3946;48.958;8.284;2023-05-08T02:47:38;100801.47;;;15.48;100.00
163;BME280;3946;48.958;8.284;2023-05-08T02:50:28;100796.84;;;15.40;100.00
163;BME280;3946;48.958;8.284;2023-05-08T02:53:17;100803.84;;;15.39;100.00
163;BME280;3946;48.958;8.284;2023-05-08T02:56:08;100800.84;;;15.44;100.00
163;BME280;3946;48.958;8.284;2023-05-08T02:58:54;100805.19;;;15.56;100.00
163;BME280;3946;48.958;8.284;2023-05-08T03:01:43;100798.25;;;15.44;100.00
163;BME280;3946;48.958;8.284;2023-05-08T03:04:30;100799.69;;;15.48;100.00
163;BME280;3946;48.958;8.284;2023-05-08T03:07:15;100799.09;;;15.45;100.00
163;BME280;3946;48.958;8.284;2023-05-08T03:10:01;100794.34;;;15.50;100.00
163;BME280;3946;48.958;8.284;2023-05-08T03:12:51;100790.53;;;15.43;100.00
163;BME280;3946;48.958;8.284;2023-05-08T03:15:40;100785.19;;;15.44;100.00
163;BME280;3946;48.958;8.284;2023-05-08T03:18:27;100792.56;;;15.50;100.00
163;BME280;3946;48.958;8.284;2023-05-08T03:21:14;100787.75;;;15.57;100.00
163;BME280;3946;48.958;8.284;2023-05-08T03:24:02;100782.16;;;15.72;100.00
163;BME280;3946;48.958;8.284;2023-05-08T03:26:47;100784.34;;;15.44;100.00
163;BME280;3946;48.958;8.284;2023-05-08T03:29:35;100784.84;;;15.49;100.00
163;BME280;3946;48.958;8.284;2023-05-08T03:32:20;100784.50;;;15.42;100.00
163;BME280;3946;48.958;8.284;2023-05-08T03:35:06;100787.13;;;15.42;100.00
163;BME280;3946;48.958;8.284;2023-05-08T03:37:52;100788.19;;;15.39;100.00
163;BME280;3946;48.958;8.284;2023-05-08T03:40:38;100790.06;;;15.37;100.00
163;BME280;3946;48.958;8.284;2023-05-08T03:43:25;100801.22;;;15.39;100.00
163;BME280;3946;48.958;8.284;2023-05-08T03:46:13;100800.84;;;15.33;100.00
163;BME280;3946;48.958;8.284;2023-05-08T03:49:00;100804.66;;;15.29;100.00
163;BME280;3946;48.958;8.284;2023-05-08T03:51:47;100808.00;;;15.53;100.00
163;BME280;3946;48.958;8.284;2023-05-08T03:54:32;100806.34;;;15.41;100.00
163;BME280;3946;48.958;8.284;2023-05-08T03:57:17;100798.97;;;15.35;100.00
163;BME280;3946;48.958;8.284;2023-05-08T04:00:05;100804.78;;;15.38;100.00
163;BME280;3946;48.958;8.284;2023-05-08T04:03:08;100812.13;;;15.45;100.00
163;BME280;3946;48.958;8.284;2023-05-08T04:05:57;100815.91;;;15.29;100.00
163;BME280;3946;48.958;8.284;2023-05-08T04:08:47;100821.75;;;15.22;100.00
163;BME280;3946;48.958;8.284;2023-05-08T04:11:37;100819.97;;;15.45;100.00
163;BME280;3946;48.958;8.284;2023-05-08T04:14:25;100807.75;;;15.45;100.00
163;BME280;3946;48.958;8.284;2023-05-08T04:17:11;100810.75;;;15.63;100.00
163;BME280;3946;48.958;8.284;2023-05-08T04:20:01;100801.22;;;15.39;100.00
163;BME280;3946;48.958;8.284;2023-05-08T04:22:48;100808.69;;;15.44;100.00
163;BME280;3946;48.958;8.284;2023-05-08T04:25:35;100813.91;;;15.44;100.00
163;BME280;3946;48.958;8.284;2023-05-08T04:28:21;100803.72;;;15.41;100.00
163;BME280;3946;48.958;8.284;2023-05-08T04:31:07;100809.31;;;15.59;100.00
163;BME280;3946;48.958;8.284;2023-05-08T04:33:52;100807.63;;;15.35;100.00
163;BME280;3946;48.958;8.284;2023-05-08T04:36:40;100813.34;;;15.52;100.00
163;BME280;3946;48.958;8.284;2023-05-08T04:39:25;100809.06;;;15.51;100.00
163;BME280;3946;48.958;8.284;2023-05-08T04:42:10;100814.06;;;15.76;100.00
163;BME280;3946;48.958;8.284;2023-05-08T04:44:55;100809.56;;;15.78;100.00
163;BME280;3946;48.958;8.284;2023-05-08T04:47:40;100812.56;;;15.73;100.00
163;BME280;3946;48.958;8.284;2023-05-08T04:50:25;100816.94;;;15.62;100.00
163;BME280;3946;48.958;8.284;2023-05-08T04:53:12;100817.25;;;15.46;100.00
163;BME280;3946;48.958;8.284;2023-05-08T04:55:57;100825.69;;;15.38;100.00
163;BME280;3946;48.958;8.284;2023-05-08T04:58:43;100831.75;;;15.50;100.00
163;BME280;3946;48.958;8.284;2023-05-08T05:01:28;100832.47;;;15.52;100.00
163;BME280;3946;48.958;8.284;2023-05-08T05:04:14;100840.28;;;15.52;100.00
163;BME280;3946;48.958;8.284;2023-05-08T05:06:58;100831.09;;;15.70;100.00
163;BME280;3946;48.958;8.284;2023-05-08T05:09:45;100834.38;;;15.61;100.00
163;BME280;3946;48.958;8.284;2023-05-08T05:12:29;100843.44;;;15.68;100.00
163;BME280;3946;48.958;8.284;2023-05-08T05:15:15;100840.81;;;15.80;100.00
163;BME280;3946;48.958;8.284;2023-05-08T05:18:00;100837.25;;;15.81;100.00
163;BME280;3946;48.958;8.284;2023-05-08T05:20:45;100838.78;;;15.83;100.00
163;BME280;3946;48.958;8.284;2023-05-08T05:23:30;100835.00;;;15.65;100.00
163;BME280;3946;48.958;8.284;2023-05-08T05:26:16;100842.22;;;15.61;100.00
163;BME280;3946;48.958;8.284;2023-05-08T05:29:02;100844.72;;;15.63;100.00
163;BME280;3946;48.958;8.284;2023-05-08T05:31:47;100847.56;;;15.60;100.00
163;BME280;3946;48.958;8.284;2023-05-08T05:34:32;100842.22;;;15.61;100.00
163;BME280;3946;48.958;8.284;2023-05-08T05:37:17;100850.31;;;15.69;100.00
163;BME280;3946;48.958;8.284;2023-05-08T05:40:02;100847.47;;;15.72;100.00
163;BME280;3946;48.958;8.284;2023-05-08T05:42:51;100848.19;;;15.74;100.00
163;BME280;3946;48.958;8.284;2023-05-08T05:45:37;100847.34;;;15.74;100.00
163;BME280;3946;48.958;8.284;2023-05-08T05:48:22;100852.31;;;15.77;100.00
163;BME280;3946;48.958;8.284;2023-05-08T05:51:08;100857.81;;;15.74;100.00
163;BME280;3946;48.958;8.284;2023-05-08T05:53:53;100862.19;;;15.73;100.00
163;BME280;3946;48.958;8.284;2023-05-08T05:56:40;100856.16;;;15.73;100.00
163;BME280;3946;48.958;8.284;2023-05-08T05:59:26;100874.78;;;15.68;100.00
163;BME280;3946;48.958;8.284;2023-05-08T06:02:12;100862.88;;;15.64;100.00
163;BME280;3946;48.958;8.284;2023-05-08T06:05:04;100869.09;;;15.74;100.00
163;BME280;3946;48.958;8.284;2023-05-08T06:07:50;100874.66;;;15.92;100.00
163;BME280;3946;48.958;8.284;2023-05-08T06:10:35;100872.28;;;16.12;100.00
163;BME280;3946;48.958;8.284;2023-05-08T06:13:20;100859.22;;;16.23;100.00
163;BME280;3946;48.958;8.284;2023-05-08T06:16:10;100856.50;;;16.02;100.00
163;BME280;3946;48.958;8.284;2023-05-08T06:18:55;100853.63;;;16.05;100.00
163;BME280;3946;48.958;8.284;2023-05-08T06:21:40;100859.69;;;16.05;100.00
163;BME280;3946;48.958;8.284;2023-05-08T06:24:25;100870.84;;;16.19;100.00
163;BME280;3946;48.958;8.284;2023-05-08T06:27:10;100852.44;;;16.20;100.00
163;BME280;3946;48.958;8.284;2023-05-08T06:29:55;100859.59;;;16.07;100.00
163;BME280;3946;48.958;8.284;2023-05-08T06:32:41;100865.59;;;16.07;100.00
163;BME280;3946;48.958;8.284;2023-05-08T06:35:26;100864.66;;;16.08;100.00
163;BME280;3946;48.958;8.284;2023-05-08T06:38:11;100871.91;;;16.16;100.00
163;BME280;3946;48.958;8.284;2023-05-08T06:40:56;100877.16;;;16.16;100.00
163;BME280;3946;48.958;8.284;2023-05-08T06:43:41;100878.44;;;16.10;100.00
163;BME280;3946;48.958;8.284;2023-05-08T06:46:26;100875.47;;;16.26;100.00
163;BME280;3946;48.958;8.284;2023-05-08T06:49:13;100872.97;;;16.36;100.00
163;BME280;3946;48.958;8.284;2023-05-08T06:51:58;100866.78;;;16.37;100.00
163;BME280;3946;48.958;8.284;2023-05-08T06:54:44;100863.84;;;16.62;100.00
163;BME280;3946;48.958;8.284;2023-05-08T06:57:29;100857.78;;;16.62;100.00
163;BME280;3946;48.958;8.284;2023-05-08T07:00:14;100859.19;;;16.77;100.00
163;BME280;3946;48.958;8.284;2023-05-08T07:02:59;100861.22;;;16.73;100.00
163;BME280;3946;48.958;8.284;2023-05-08T07:05:45;100856.94;;;16.72;100.00
163;BME280;3946;48.958;8.284;2023-05-08T07:08:30;100851.16;;;16.90;100.00
163;BME280;3946;48.958;8.284;2023-05-08T07:11:15;100848.69;;;17.09;100.00
163;BME280;3946;48.958;8.284;2023-05-08T07:14:00;100846.19;;;17.07;100.00
163;BME280;3946;48.958;8.284;2023-05-08T07:16:45;100851.50;;;17.17;100.00
163;BME280;3946;48.958;8.284;2023-05-08T07:19:30;100848.50;;;17.22;100.00
163;BME280;3946;48.958;8.284;2023-05-08T07:22:16;100853.34;;;17.05;100.00
163;BME280;3946;48.958;8.284;2023-05-08T07:25:01;100857.34;;;17.21;100.00
163;BME280;3946;48.958;8.284;2023-05-08T07:27:46;100863.19;;;17.13;100.00
163;BME280;3946;48.958;8.284;2023-05-08T07:30:31;100865.75;;;17.45;100.00
163;BME280;3946;48.958;8.284;2023-05-08T07:33:16;100862.41;;;17.22;100.00
163;BME280;3946;48.958;8.284;2023-05-08T07:36:01;100859.56;;;17.04;100.00
163;BME280;3946;48.958;8.284;2023-05-08T07:38:47;100856.59;;;17.39;100.00
163;BME280;3946;48.958;8.284;2023-05-08T07:41:32;100857.84;;;17.35;100.00
163;BME280;3946;48.958;8.284;2023-05-08T07:44:18;100857.09;;;17.75;100.00
163;BME280;3946;48.958;8.284;2023-05-08T07:47:03;100855.16;;;17.67;100.00
163;BME280;3946;48.958;8.284;2023-05-08T07:49:49;100868.75;;;17.40;100.00
163;BME280;3946;48.958;8.284;2023-05-08T07:52:34;100880.38;;;17.47;100.00
163;BME280;3946;48.958;8.284;2023-05-08T07:55:20;100869.81;;;17.38;100.00
163;BME280;3946;48.958;8.284;2023-05-08T07:58:05;100871.84;;;17.55;100.00
163;BME280;3946;48.958;8.284;2023-05-08T08:00:50;100880.13;;;17.51;100.00
163;BME280;3946;48.958;8.284;2023-05-08T08:03:36;100876.47;;;17.42;100.00
163;BME280;3946;48.958;8.284;2023-05-08T08:06:21;100877.91;;;17.67;100.00
163;BME280;3946;48.958;8.284;2023-05-08T08:09:06;100873.22;;;17.70;100.00
163;BME280;3946;48.958;8.284;2023-05-08T08:11:52;100875.25;;;17.46;100.00
163;BME280;3946;48.958;8.284;2023-05-08T08:14:37;100874.69;;;17.63;100.00
163;BME280;3946;48.958;8.284;2023-05-08T08:17:22;100871.75;;;17.87;100.00
163;BME280;3946;48.958;8.284;2023-05-08T08:20:08;100871.75;;;17.87;100.00
163;BME280;3946;48.958;8.284;2023-05-08T08:22:53;100868.88;;;17.90;100.00
163;BME280;3946;48.958;8.284;2023-05-08T08:25:38;100864.19;;;17.84;100.00
163;BME280;3946;48.958;8.284;2023-05-08T08:28:24;100871.94;;;17.86;100.00
163;BME280;3946;48.958;8.284;2023-05-08T08:31:10;100874.13;;;17.90;100.00
163;BME280;3946;48.958;8.284;2023-05-08T08:33:55;100870.38;;;18.13;100.00
163;BME280;3946;48.958;8.284;2023-05-08T08:36:40;100863.38;;;18.33;100.00
163;BME280;3946;48.958;8.284;2023-05-08T08:39:26;100871.97;;;18.05;100.00
163;BME280;3946;48.958;8.284;2023-05-08T08:42:13;100867.75;;;18.13;100.00
163;BME280;3946;48.958;8.284;2023-05-08T08:45:00;100870.84;;;18.57;100.00
163;BME280;3946;48.958;8.284;2023-05-08T08:47:45;100865.19;;;18.42;100.00
163;BME280;3946;48.958;8.284;2023-05-08T08:50:32;100870.34;;;18.73;100.00
163;BME280;3946;48.958;8.284;2023-05-08T08:53:20;100869.09;;;18.67;100.00
163;BME280;3946;48.958;8.284;2023-05-08T08:56:06;100874.72;;;18.53;100.00
163;BME280;3946;48.958;8.284;2023-05-08T08:58:53;100877.81;;;18.68;97.79
163;BME280;3946;48.958;8.284;2023-05-08T09:01:40;100873.28;;;18.79;99.07
163;BME280;3946;48.958;8.284;2023-05-08T09:04:27;100879.69;;;18.56;99.55
163;BME280;3946;48.958;8.284;2023-05-08T09:07:15;100882.59;;;18.53;99.53
163;BME280;3946;48.958;8.284;2023-05-08T09:10:01;100885.28;;;18.63;98.69
163;BME280;3946;48.958;8.284;2023-05-08T09:12:50;100882.94;;;18.98;97.61
163;BME280;3946;48.958;8.284;2023-05-08T09:15:35;100874.78;;;18.92;96.79
163;BME280;3946;48.958;8.284;2023-05-08T09:18:21;100881.28;;;19.07;96.75
163;BME280;3946;48.958;8.284;2023-05-08T09:21:06;100883.06;;;19.26;96.29
163;BME280;3946;48.958;8.284;2023-05-08T09:23:54;100875.56;;;19.40;92.89
163;BME280;3946;48.958;8.284;2023-05-08T09:26:40;100871.06;;;19.79;92.48
163;BME280;3946;48.958;8.284;2023-05-08T09:29:25;100878.63;;;20.19;89.91
163;BME280;3946;48.958;8.284;2023-05-08T09:32:10;100871.94;;;19.98;90.29
163;BME280;3946;48.958;8.284;2023-05-08T09:35:03;100871.09;;;20.52;87.87
163;BME280;3946;48.958;8.284;2023-05-08T09:37:49;100868.19;;;20.55;87.11
163;BME280;3946;48.958;8.284;2023-05-08T09:40:34;100873.41;;;20.37;87.90
163;BME280;3946;48.958;8.284;2023-05-08T09:43:19;100874.19;;;20.65;86.41
163;BME280;3946;48.958;8.284;2023-05-08T09:46:20;100884.38;;;20.60;87.42
163;BME280;3946;48.958;8.284;2023-05-08T09:49:06;100878.03;;;20.88;85.19
163;BME280;3946;48.958;8.284;2023-05-08T09:52:01;100869.16;;;21.07;84.16
163;BME280;3946;48.958;8.284;2023-05-08T09:54:46;100857.31;;;21.55;80.60
163;BME280;3946;48.958;8.284;2023-05-08T09:57:32;100854.53;;;22.32;79.09
163;BME280;3946;48.958;8.284;2023-05-08T10:00:19;100843.41;;;22.05;76.86
163;BME280;3946;48.958;8.284;2023-05-08T10:03:04;100854.19;;;21.59;78.02
163;BME280;3946;48.958;8.284;2023-05-08T10:05:49;100868.53;;;20.95;80.61
163;BME280;3946;48.958;8.284;2023-05-08T10:08:36;100861.59;;;21.56;79.20
163;BME280;3946;48.958;8.284;2023-05-08T10:11:21;100877.06;;;21.51;81.18
163;BME280;3946;48.958;8.284;2023-05-08T10:14:06;100856.09;;;21.41;78.87
163;BME280;3946;48.958;8.284;2023-05-08T10:16:51;100868.31;;;21.50;79.84
163;BME280;3946;48.958;8.284;2023-05-08T10:19:37;100882.22;;;21.35;81.66
163;BME280;3946;48.958;8.284;2023-05-08T10:22:25;100883.03;;;20.74;83.15
163;BME280;3946;48.958;8.284;2023-05-08T10:25:14;100888.72;;;20.24;87.09
163;BME280;3946;48.958;8.284;2023-05-08T10:28:06;100891.97;;;20.08;87.88
163;BME280;3946;48.958;8.284;2023-05-08T10:30:54;100883.03;;;20.19;87.29
163;BME280;3946;48.958;8.284;2023-05-08T10:33:43;100883.53;;;20.05;88.97
163;BME280;3946;48.958;8.284;2023-05-08T10:36:28;100886.22;;;20.22;88.47
163;BME280;3946;48.958;8.284;2023-05-08T10:39:14;100885.25;;;20.23;89.87
163;BME280;3946;48.958;8.284;2023-05-08T10:42:01;100878.47;;;20.48;87.82
163;BME280;3946;48.958;8.284;2023-05-08T10:44:46;100874.13;;;20.30;86.95
163;BME280;3946;48.958;8.284;2023-05-08T10:47:35;100874.94;;;20.30;85.67
163;BME280;3946;48.958;8.284;2023-05-08T10:50:27;100869.00;;;20.55;85.71
163;BME280;3946;48.958;8.284;2023-05-08T10:53:19;100866.97;;;21.03;87.24
163;BME280;3946;48.958;8.284;2023-05-08T10:56:06;100861.25;;;21.25;84.77
163;BME280;3946;48.958;8.284;2023-05-08T10:58:55;100858.66;;;21.33;84.58
163;BME280;3946;48.958;8.284;2023-05-08T11:01:40;100850.84;;;21.83;83.15
163;BME280;3946;48.958;8.284;2023-05-08T11:04:26;100844.50;;;21.34;80.75
163;BME280;3946;48.958;8.284;2023-05-08T11:07:12;100850.56;;;21.60;82.26
163;BME280;3946;48.958;8.284;2023-05-08T11:10:05;100851.56;;;21.34;84.09
163;BME280;3946;48.958;8.284;2023-05-08T11:12:50;100843.22;;;20.59;83.50
163;BME280;3946;48.958;8.284;2023-05-08T11:15:39;100844.75;;;21.05;82.92
163;BME280;3946;48.958;8.284;2023-05-08T11:18:25;100845.28;;;21.09;81.45
163;BME280;3946;48.958;8.284;2023-05-08T11:21:13;100839.88;;;20.92;80.51
163;BME280;3946;48.958;8.284;2023-05-08T11:23:58;100848.78;;;20.74;82.76
163;BME280;3946;48.958;8.284;2023-05-08T11:26:53;100838.16;;;20.66;83.31
163;BME280;3946;48.958;8.284;2023-05-08T11:29:38;100838.25;;;20.74;83.80
163;BME280;3946;48.958;8.284;2023-05-08T11:32:30;100830.63;;;20.53;82.79
163;BME280;3946;48.958;8.284;2023-05-08T11:35:49;100841.06;;;20.80;84.73
163;BME280;3946;48.958;8.284;2023-05-08T11:38:35;100837.44;;;20.99;82.43
163;BME280;3946;48.958;8.284;2023-05-08T11:41:21;100842.66;;;20.91;82.43
163;BME280;3946;48.958;8.284;2023-05-08T11:44:15;100844.06;;;21.03;83.09
163;BME280;3946;48.958;8.284;2023-05-08T11:47:01;100845.72;;;21.04;83.99
163;BME280;3946;48.958;8.284;2023-05-08T11:49:48;100832.44;;;21.14;82.50
163;BME280;3946;48.958;8.284;2023-05-08T11:52:33;100834.63;;;20.92;82.33
163;BME280;3946;48.958;8.284;2023-05-08T11:55:19;100829.28;;;20.49;82.91
163;BME280;3946;48.958;8.284;2023-05-08T11:58:10;100843.81;;;19.98;86.34
163;BME280;3946;48.958;8.284;2023-05-08T12:00:55;100849.50;;;20.48;87.53
163;BME280;3946;48.958;8.284;2023-05-08T12:03:40;100824.53;;;20.88;82.55
163;BME280;3946;48.958;8.284;2023-05-08T12:06:26;100830.13;;;21.11;81.35
163;BME280;3946;48.958;8.284;2023-05-08T12:09:12;100842.94;;;21.23;82.40
163;BME280;3946;48.958;8.284;2023-05-08T12:11:58;100835.66;;;20.64;81.79
163;BME280;3946;48.958;8.284;2023-05-08T12:14:42;100842.16;;;20.52;85.08
163;BME280;3946;48.958;8.284;2023-05-08T12:17:27;100838.59;;;20.79;85.04
163;BME280;3946;48.958;8.284;2023-05-08T12:20:13;100832.06;;;20.83;82.93
163;BME280;3946;48.958;8.284;2023-05-08T12:23:01;100838.22;;;20.91;83.59
163;BME280;3946;48.958;8.284;2023-05-08T12:25:46;100834.06;;;21.24;82.16
163;BME280;3946;48.958;8.284;2023-05-08T12:28:31;100831.16;;;21.18;81.45
163;BME280;3946;48.958;8.284;2023-05-08T12:31:17;100841.41;;;21.39;84.13
163;BME280;3946;48.958;8.284;2023-05-08T12:34:02;100834.06;;;21.24;82.37
163;BME280;3946;48.958;8.284;2023-05-08T12:36:47;100836.44;;;21.18;81.38
163;BME280;3946;48.958;8.284;2023-05-08T12:39:35;100831.13;;;21.10;81.92
163;BME280;3946;48.958;8.284;2023-05-08T12:42:21;100826.00;;;21.08;82.71
163;BME280;3946;48.958;8.284;2023-05-08T12:45:06;100828.00;;;21.14;83.37
163;BME280;3946;48.958;8.284;2023-05-08T12:47:52;100822.03;;;20.86;82.51
163;BME280;3946;48.958;8.284;2023-05-08T12:50:39;100829.53;;;20.99;83.44
163;BME280;3946;48.958;8.284;2023-05-08T12:53:25;100827.72;;;21.17;83.19
163;BME280;3946;48.958;8.284;2023-05-08T12:56:14;100841.38;;;20.95;82.96
163;BME280;3946;48.958;8.284;2023-05-08T12:59:05;100833.56;;;20.68;82.68
163;BME280;3946;48.958;8.284;2023-05-08T13:01:50;100826.59;;;20.58;82.78
163;BME280;3946;48.958;8.284;2023-05-08T13:04:35;100834.63;;;20.57;82.95
163;BME280;3946;48.958;8.284;2023-05-08T13:07:21;100819.53;;;20.32;82.59
163;BME280;3946;48.958;8.284;2023-05-08T13:10:06;100831.03;;;20.31;83.93
163;BME280;3946;48.958;8.284;2023-05-08T13:12:53;100829.97;;;20.69;83.77
163;BME280;3946;48.958;8.284;2023-05-08T13:15:38;100840.03;;;20.73;84.72
163;BME280;3946;48.958;8.284;2023-05-08T13:18:24;100834.84;;;20.81;84.52
163;BME280;3946;48.958;8.284;2023-05-08T13:21:10;100826.78;;;20.65;83.81
163;BME280;3946;48.958;8.284;2023-05-08T13:23:55;100830.78;;;20.69;84.87
163;BME280;3946;48.958;8.284;2023-05-08T13:26:40;100828.75;;;20.63;85.07
163;BME280;3946;48.958;8.284;2023-05-08T13:29:26;100836.50;;;20.65;87.17
163;BME280;3946;48.958;8.284;2023-05-08T13:32:11;100829.97;;;20.51;87.58
163;BME280;3946;48.958;8.284;2023-05-08T13:34:56;100835.91;;;20.71;89.24
163;BME280;3946;48.958;8.284;2023-05-08T13:37:41;100818.72;;;20.84;84.74
163;BME280;3946;48.958;8.284;2023-05-08T13:40:27;100831.63;;;21.13;86.74
163;BME280;3946;48.958;8.284;2023-05-08T13:43:12;100820.47;;;20.93;84.71
163;BME280;3946;48.958;8.284;2023-05-08T13:45:58;100811.66;;;20.49;83.61
163;BME280;3946;48.958;8.284;2023-05-08T13:48:44;100815.56;;;20.63;84.17
163;BME280;3946;48.958;8.284;2023-05-08T13:51:29;100816.41;;;20.64;85.05
163;BME280;3946;48.958;8.284;2023-05-08T13:54:14;100814.75;;;20.80;86.11
163;BME280;3946;48.958;8.284;2023-05-08T13:57:00;100809.94;;;20.93;83.86
163;BME280;3946;48.958;8.284;2023-05-08T13:59:46;100805.53;;;20.58;85.03
163;BME280;3946;48.958;8.284;2023-05-08T14:02:33;100808.81;;;20.15;85.54
163;BME280;3946;48.958;8.284;2023-05-08T14:05:18;100814.75;;;20.00;87.02
163;BME280;3946;48.958;8.284;2023-05-08T14:08:03;100812.28;;;20.16;86.96
163;BME280;3946;48.958;8.284;2023-05-08T14:10:48;100802.88;;;20.41;84.95
163;BME280;3946;48.958;8.284;2023-05-08T14:13:33;100797.03;;;20.19;83.98
163;BME280;3946;48.958;8.284;2023-05-08T14:16:18;100788.06;;;20.40;83.80
163;BME280;3946;48.958;8.284;2023-05-08T14:19:04;100802.59;;;20.44;85.46
163;BME280;3946;48.958;8.284;2023-05-08T14:21:49;100791.09;;;20.17;84.51
163;BME280;3946;48.958;8.284;2023-05-08T14:24:35;100786.59;;;20.27;84.15
163;BME280;3946;48.958;8.284;2023-05-08T14:27:20;100783.09;;;20.54;83.28
163;BME280;3946;48.958;8.284;2023-05-08T14:30:06;100781.88;;;21.10;82.52
163;BME280;3946;48.958;8.284;2023-05-08T14:32:52;100770.13;;;21.56;80.90
163;BME280;3946;48.958;8.284;2023-05-08T14:35:38;100763.63;;;21.85;79.49
163;BME280;3946;48.958;8.284;2023-05-08T14:38:25;100768.81;;;22.03;80.75
163;BME280;3946;48.958;8.284;2023-05-08T14:41:10;100765.25;;;21.78;80.33
163;BME280;3946;48.958;8.284;2023-05-08T14:43:56;100784.31;;;21.55;81.33
163;BME280;3946;48.958;8.284;2023-05-08T14:46:41;100776.56;;;21.28;80.82
163;BME280;3946;48.958;8.284;2023-05-08T14:49:26;100781.19;;;20.82;81.23
163;BME280;3946;48.958;8.284;2023-05-08T14:52:13;100773.00;;;20.68;82.45
163;BME280;3946;48.958;8.284;2023-05-08T14:54:58;100783.00;;;20.46;84.37
163;BME280;3946;48.958;8.284;2023-05-08T14:57:43;100775.88;;;20.39;82.60
163;BME280;3946;48.958;8.284;2023-05-08T15:00:28;100782.00;;;20.30;85.02